createdAt,value
2019-05-01T00:01:28.799Z,8.93
2019-05-01T00:04:37.187Z,8.84
2019-05-01T00:07:16.015Z,8.95
2019-05-01T00:09:47.338Z,9.01
2019-05-01T00:12:18.147Z,8.90
2019-05-01T00:14:48.966Z,8.90
2019-05-01T00:17:20.848Z,8.87
2019-05-01T00:19:51.834Z,8.93
2019-05-01T00:22:23.045Z,8.84
2019-05-01T00:24:53.861Z,8.77
2019-05-01T00:27:25.160Z,8.68
2019-05-01T00:29:57.321Z,8.68
2019-05-01T00:32:28.292Z,8.63
2019-05-01T00:34:59.388Z,8.54
2019-05-01T00:40:51.409Z,8.51
2019-05-01T00:43:34.525Z,8.37
2019-05-01T00:46:05.363Z,8.32
2019-05-01T00:51:57.549Z,8.06
2019-05-01T01:00:52.106Z,7.92
2019-05-01T01:03:22.947Z,8.08
2019-05-01T01:05:53.700Z,8.02
2019-05-01T01:08:24.779Z,7.89
2019-05-01T01:10:55.795Z,7.86
2019-05-01T01:13:26.794Z,7.78
2019-05-01T01:15:57.599Z,7.72
2019-05-01T01:18:28.606Z,7.74
2019-05-01T01:20:59.999Z,7.65
2019-05-01T01:23:50.326Z,7.54
2019-05-01T01:26:45.908Z,7.51
2019-05-01T01:29:41.642Z,7.42
2019-05-01T01:32:12.648Z,7.36
2019-05-01T01:34:43.505Z,7.28
2019-05-01T01:37:14.496Z,7.25
2019-05-01T01:39:45.566Z,7.22
2019-05-01T01:42:16.420Z,7.17
2019-05-01T01:45:25.782Z,7.13
2019-05-01T01:51:19.313Z,7.07
2019-05-01T01:53:50.905Z,7.12
2019-05-01T01:56:22.175Z,7.14
2019-05-01T01:58:53.409Z,7.07
2019-05-01T02:01:43.853Z,7.06
2019-05-01T02:04:24.323Z,7.05
2019-05-01T02:06:55.106Z,7.04
2019-05-01T02:09:26.172Z,7.09
2019-05-01T02:11:57.219Z,7.02
2019-05-01T02:14:28.378Z,6.99
2019-05-01T02:16:59.232Z,6.90
2019-05-01T02:19:30.312Z,6.92
2019-05-01T02:22:01.162Z,6.87
2019-05-01T02:24:32.041Z,6.97
2019-05-01T02:27:06.650Z,6.99
2019-05-01T02:29:43.888Z,6.95
2019-05-01T02:32:15.524Z,7.01
2019-05-01T02:34:46.360Z,6.98
2019-05-01T02:37:19.015Z,6.93
2019-05-01T02:39:50.210Z,6.94
2019-05-01T02:43:01.442Z,6.86
2019-05-01T02:46:05.037Z,6.81
2019-05-01T02:48:39.879Z,6.84
2019-05-01T02:51:10.828Z,6.83
2019-05-01T02:53:43.724Z,6.72
2019-05-01T02:56:30.279Z,6.68
2019-05-01T02:59:02.066Z,6.65
2019-05-01T03:01:46.405Z,6.59
2019-05-01T03:08:02.120Z,6.54
2019-05-01T03:10:32.977Z,6.63
2019-05-01T03:13:29.170Z,6.59
2019-05-01T03:19:43.518Z,6.53
2019-05-01T03:22:26.675Z,6.48
2019-05-01T03:28:52.328Z,6.35
2019-05-01T03:32:16.805Z,6.35
2019-05-01T03:35:33.381Z,6.38
2019-05-01T03:38:44.017Z,6.40
2019-05-01T03:41:36.313Z,6.36
2019-05-01T03:44:07.250Z,6.36
2019-05-01T03:46:38.388Z,6.43
2019-05-01T03:49:09.335Z,6.50
2019-05-01T03:51:40.874Z,6.38
2019-05-01T03:54:12.716Z,6.39
2019-05-01T03:56:43.574Z,6.34
2019-05-01T03:59:14.415Z,6.30
2019-05-01T04:02:01.376Z,6.34
2019-05-01T04:04:32.862Z,6.28
2019-05-01T04:07:03.744Z,6.23
2019-05-01T04:13:15.547Z,6.18
2019-05-01T04:16:51.489Z,6.28
2019-05-01T04:22:25.936Z,6.15
2019-05-01T04:25:15.916Z,6.18
2019-05-01T04:28:45.845Z,6.15
2019-05-01T04:31:55.089Z,6.18
2019-05-01T04:35:18.968Z,6.22
2019-05-01T04:38:09.162Z,6.28
2019-05-01T04:40:40.255Z,6.30
2019-05-01T04:43:11.353Z,6.31
2019-05-01T04:45:42.347Z,6.35
2019-05-01T04:48:13.930Z,6.39
2019-05-01T04:50:44.760Z,6.41
2019-05-01T04:53:15.620Z,6.44
2019-05-01T04:55:46.653Z,6.48
2019-05-01T04:58:18.178Z,6.52
2019-05-01T05:00:49.331Z,6.58
2019-05-01T05:03:22.738Z,6.59
2019-05-01T05:05:53.569Z,6.62
2019-05-01T05:08:24.521Z,6.63
2019-05-01T05:10:57.421Z,6.65
2019-05-01T05:13:40.507Z,6.72
2019-05-01T05:16:28.144Z,6.75
2019-05-01T05:18:59.247Z,6.84
2019-05-01T05:21:30.325Z,7.05
2019-05-01T05:24:01.658Z,7.22
2019-05-01T05:26:32.759Z,7.32
2019-05-01T05:29:03.778Z,7.25
2019-05-01T05:38:09.727Z,7.57
2019-05-01T05:40:40.662Z,7.67
2019-05-01T05:43:11.539Z,7.79
2019-05-01T05:45:42.377Z,7.88
2019-05-01T05:48:13.788Z,8.00
2019-05-01T05:51:04.722Z,8.11
2019-05-01T05:53:39.146Z,8.17
2019-05-01T05:56:15.576Z,8.28
2019-05-01T05:58:50.530Z,8.36
2019-05-01T06:01:36.661Z,8.47
2019-05-01T06:04:25.838Z,8.54
2019-05-01T06:07:08.799Z,8.70
2019-05-01T06:09:49.715Z,8.88
2019-05-01T06:12:46.768Z,9.03
2019-05-01T06:22:10.097Z,9.36
2019-05-01T06:24:43.217Z,9.45
2019-05-01T06:27:15.068Z,9.44
2019-05-01T06:29:45.953Z,9.53
2019-05-01T06:32:36.243Z,9.57
2019-05-01T06:35:07.338Z,9.71
2019-05-01T06:38:13.981Z,9.82
2019-05-01T06:40:46.578Z,9.97
2019-05-01T06:43:30.690Z,10.00
2019-05-01T06:46:27.320Z,10.23
2019-05-01T06:49:07.030Z,10.32
2019-05-01T06:51:53.284Z,10.45
2019-05-01T06:54:24.295Z,10.66
2019-05-01T06:56:55.561Z,10.62
2019-05-01T06:59:31.294Z,10.81
2019-05-01T07:02:00.315Z,11.12
2019-05-01T07:04:32.450Z,11.18
2019-05-01T07:07:06.931Z,11.23
2019-05-01T07:09:38.486Z,11.34
2019-05-01T07:12:14.397Z,11.48
2019-05-01T07:14:47.130Z,11.68
2019-05-01T07:17:18.841Z,11.75
2019-05-01T07:20:16.887Z,12.07
2019-05-01T07:22:47.440Z,12.18
2019-05-01T07:25:18.279Z,12.57
2019-05-01T07:27:49.058Z,12.76
2019-05-01T07:30:30.089Z,12.83
2019-05-01T07:33:01.107Z,12.89
2019-05-01T07:35:33.088Z,13.28
2019-05-01T07:38:04.484Z,13.48
2019-05-01T07:40:36.696Z,14.29
2019-05-01T07:43:24.034Z,14.11
2019-05-01T07:46:02.977Z,14.28
2019-05-01T07:48:41.548Z,14.48
2019-05-01T07:51:09.879Z,14.80
2019-05-01T07:53:41.609Z,15.22
2019-05-01T07:56:12.817Z,15.01
2019-05-01T07:58:47.511Z,14.85
2019-05-01T08:01:34.320Z,14.96
2019-05-01T08:04:05.155Z,14.87
2019-05-01T08:06:36.254Z,14.56
2019-05-01T08:09:11.368Z,14.59
2019-05-01T08:11:44.030Z,14.80
2019-05-01T08:14:52.483Z,14.59
2019-05-01T08:23:54.452Z,14.54
2019-05-01T08:26:25.330Z,14.79
2019-05-01T08:29:41.849Z,15.17
2019-05-01T08:32:33.725Z,15.26
2019-05-01T08:35:08.158Z,15.24
2019-05-01T08:37:38.992Z,15.39
2019-05-01T08:40:10.048Z,15.62
2019-05-01T08:42:42.732Z,15.83
2019-05-01T08:45:35.812Z,15.97
2019-05-01T08:48:41.023Z,15.85
2019-05-01T08:51:11.861Z,16.05
2019-05-01T08:53:42.691Z,16.32
2019-05-01T08:56:16.987Z,16.44
2019-05-01T08:58:49.434Z,16.39
2019-05-01T09:01:18.734Z,16.52
2019-05-01T09:03:54.208Z,16.80
2019-05-01T09:06:34.226Z,16.58
2019-05-01T09:08:54.825Z,16.67
2019-05-01T09:11:25.664Z,16.69
2019-05-01T09:13:59.006Z,17.01
2019-05-01T09:16:30.250Z,17.00
2019-05-01T09:19:01.644Z,16.88
2019-05-01T09:21:33.234Z,17.25
2019-05-01T09:24:05.454Z,17.35
2019-05-01T09:26:49.737Z,17.42
2019-05-01T09:29:22.392Z,17.24
2019-05-01T09:31:53.256Z,17.44
2019-05-01T09:34:24.029Z,17.55
2019-05-01T09:36:54.981Z,17.71
2019-05-01T09:39:26.217Z,17.82
2019-05-01T09:41:57.330Z,17.86
2019-05-01T09:44:28.165Z,18.05
2019-05-01T09:46:59.009Z,18.22
2019-05-01T09:49:29.917Z,18.21
2019-05-01T09:52:23.373Z,18.26
2019-05-01T09:54:56.829Z,18.24
2019-05-01T09:57:28.005Z,18.30
2019-05-01T09:59:58.964Z,18.46
2019-05-01T10:02:29.737Z,18.63
2019-05-01T10:05:02.119Z,18.75
2019-05-01T10:07:33.409Z,18.79
2019-05-01T10:10:04.746Z,18.76
2019-05-01T10:12:35.902Z,18.93
2019-05-01T10:15:07.066Z,18.96
2019-05-01T10:17:38.080Z,19.08
2019-05-01T10:20:09.402Z,19.46
2019-05-01T10:22:40.165Z,19.63
2019-05-01T10:25:12.415Z,19.90
2019-05-01T10:28:15.834Z,19.48
2019-05-01T10:31:28.320Z,19.53
2019-05-01T10:34:38.622Z,19.65
2019-05-01T10:37:33.548Z,19.71
2019-05-01T10:40:01.555Z,19.80
2019-05-01T10:42:53.859Z,19.45
2019-05-01T10:45:24.773Z,19.56
2019-05-01T10:51:04.712Z,19.64
2019-05-01T10:53:55.265Z,19.50
2019-05-01T10:56:26.048Z,19.55
2019-05-01T11:02:33.899Z,19.94
2019-05-01T11:05:04.777Z,19.84
2019-05-01T11:07:35.723Z,20.10
2019-05-01T11:10:07.480Z,20.16
2019-05-01T11:12:38.849Z,20.02
2019-05-01T11:15:09.777Z,20.31
2019-05-01T11:17:40.849Z,20.46
2019-05-01T11:20:11.695Z,20.71
2019-05-01T11:22:42.452Z,20.82
2019-05-01T11:25:15.393Z,20.97
2019-05-01T11:27:46.449Z,20.81
2019-05-01T11:30:17.518Z,20.52
2019-05-01T11:33:01.292Z,20.55
2019-05-01T11:35:51.249Z,20.46
2019-05-01T11:38:39.755Z,20.78
2019-05-01T11:44:14.536Z,20.80
2019-05-01T11:47:04.489Z,20.72
2019-05-01T11:49:35.740Z,21.05
2019-05-01T11:52:06.649Z,21.10
2019-05-01T11:54:37.932Z,21.08
2019-05-01T11:57:09.912Z,20.86
2019-05-01T11:59:40.690Z,21.03
2019-05-01T12:02:11.597Z,20.98
2019-05-01T12:04:42.700Z,20.85
2019-05-01T12:07:13.464Z,21.34
2019-05-01T12:09:44.237Z,21.35
2019-05-01T12:12:16.747Z,21.45
2019-05-01T12:14:47.568Z,21.14
2019-05-01T12:17:23.614Z,21.16
2019-05-01T12:19:54.490Z,21.27
2019-05-01T12:22:25.352Z,21.18
2019-05-01T12:24:56.373Z,21.26
2019-05-01T12:27:27.211Z,21.29
2019-05-01T12:30:17.771Z,21.46
2019-05-01T12:38:32.638Z,21.75
2019-05-01T12:44:08.470Z,21.52
2019-05-01T12:49:54.109Z,21.82
2019-05-01T12:52:49.721Z,21.59
2019-05-01T12:55:27.440Z,21.99
2019-05-01T12:57:58.480Z,22.02
2019-05-01T13:00:43.710Z,22.19
2019-05-01T13:03:14.787Z,21.96
2019-05-01T13:05:45.631Z,22.00
2019-05-01T13:08:16.661Z,22.00
2019-05-01T13:10:47.505Z,22.26
2019-05-01T13:13:18.349Z,22.16
2019-05-01T13:15:49.209Z,22.07
2019-05-01T13:18:20.194Z,22.04
2019-05-01T13:20:51.046Z,22.17
2019-05-01T13:23:22.128Z,21.98
2019-05-01T13:25:55.058Z,22.10
2019-05-01T13:28:43.469Z,22.18
2019-05-01T13:31:36.655Z,22.26
2019-05-01T13:34:08.271Z,22.10
2019-05-01T13:36:39.121Z,22.02
2019-05-01T13:39:11.339Z,22.42
2019-05-01T13:41:42.180Z,22.41
2019-05-01T13:44:13.240Z,22.70
2019-05-01T13:47:03.474Z,22.68
2019-05-01T13:49:59.643Z,22.34
2019-05-01T13:52:30.493Z,22.56
2019-05-01T13:55:01.275Z,22.44
2019-05-01T13:57:51.463Z,22.17
2019-05-01T14:00:41.948Z,21.78
2019-05-01T14:03:12.990Z,21.88
2019-05-01T14:05:43.866Z,22.54
2019-05-01T14:08:15.793Z,22.14
2019-05-01T14:11:05.760Z,22.40
2019-05-01T14:13:56.436Z,22.35
2019-05-01T14:16:46.469Z,22.40
2019-05-01T14:28:58.833Z,22.62
2019-05-01T14:31:29.627Z,22.42
2019-05-01T14:34:00.652Z,22.23
2019-05-01T14:36:31.749Z,22.33
2019-05-01T14:39:03.814Z,22.30
2019-05-01T14:41:36.562Z,22.16
2019-05-01T14:44:07.549Z,22.39
2019-05-01T14:46:38.309Z,22.43
2019-05-01T14:49:09.096Z,22.15
2019-05-01T14:51:40.185Z,21.97
2019-05-01T14:54:10.952Z,22.16
2019-05-01T14:57:01.077Z,22.02
2019-05-01T14:59:32.163Z,22.10
2019-05-01T15:02:22.081Z,22.27
2019-05-01T15:05:14.151Z,22.21
2019-05-01T15:07:44.905Z,22.21
2019-05-01T15:10:15.748Z,22.13
2019-05-01T15:12:48.486Z,22.34
2019-05-01T15:15:57.561Z,22.30
2019-05-01T15:19:06.976Z,22.10
2019-05-01T15:21:37.792Z,22.10
2019-05-01T15:24:08.600Z,22.00
2019-05-01T15:26:39.695Z,21.82
2019-05-01T15:29:10.485Z,21.74
2019-05-01T15:31:41.495Z,21.72
2019-05-01T15:34:12.273Z,21.76
2019-05-01T15:40:05.970Z,21.97
2019-05-01T15:42:41.441Z,22.01
2019-05-01T15:45:12.392Z,21.90
2019-05-01T15:47:43.397Z,21.76
2019-05-01T15:50:14.476Z,21.63
2019-05-01T15:52:45.517Z,21.51
2019-05-01T15:55:16.317Z,21.34
2019-05-01T15:57:47.161Z,21.32
2019-05-01T16:00:20.068Z,21.38
2019-05-01T16:02:50.983Z,21.61
2019-05-01T16:05:21.839Z,21.50
2019-05-01T16:07:53.671Z,21.37
2019-05-01T16:10:29.025Z,21.33
2019-05-01T16:13:01.179Z,21.53
2019-05-01T16:15:35.962Z,21.46
2019-05-01T16:18:06.802Z,21.46
2019-05-01T16:20:37.994Z,21.45
2019-05-01T16:23:08.826Z,21.47
2019-05-01T16:25:39.793Z,21.41
2019-05-01T16:28:10.800Z,21.48
2019-05-01T16:30:41.808Z,21.27
2019-05-01T16:33:13.160Z,21.37
2019-05-01T16:35:44.171Z,21.41
2019-05-01T16:38:23.329Z,21.31
2019-05-01T16:41:01.654Z,21.23
2019-05-01T16:43:32.659Z,21.29
2019-05-01T16:46:03.658Z,21.56
2019-05-01T16:48:35.166Z,21.68
2019-05-01T16:51:06.028Z,21.95
2019-05-01T16:53:36.792Z,22.08
2019-05-01T16:56:07.595Z,22.35
2019-05-01T16:58:38.806Z,22.11
2019-05-01T17:01:30.744Z,22.31
2019-05-01T17:04:09.578Z,22.49
2019-05-01T17:06:57.145Z,21.90
2019-05-01T17:09:45.609Z,21.41
2019-05-01T17:12:19.183Z,20.39
2019-05-01T17:14:50.560Z,19.93
2019-05-01T17:17:22.999Z,19.67
2019-05-01T17:19:54.075Z,19.32
2019-05-01T17:22:25.150Z,19.09
2019-05-01T17:24:55.933Z,18.70
2019-05-01T17:27:26.801Z,18.58
2019-05-01T17:29:57.809Z,18.38
2019-05-01T17:32:28.658Z,18.23
2019-05-01T17:35:01.836Z,18.04
2019-05-01T17:37:33.230Z,17.90
2019-05-01T17:40:04.285Z,17.68
2019-05-01T17:45:44.392Z,17.40
2019-05-01T17:48:34.901Z,17.19
2019-05-01T17:51:05.941Z,16.85
2019-05-01T17:53:56.065Z,16.67
2019-05-01T17:56:28.610Z,16.46
2019-05-01T17:59:27.941Z,16.29
2019-05-01T18:06:02.915Z,15.95
2019-05-01T18:08:33.385Z,15.67
2019-05-01T18:11:05.038Z,15.48
2019-05-01T18:13:36.059Z,15.35
2019-05-01T18:16:07.005Z,15.18
2019-05-01T18:18:37.852Z,15.08
2019-05-01T18:24:44.476Z,14.74
2019-05-01T18:27:34.586Z,14.48
2019-05-01T18:30:45.566Z,14.27
2019-05-01T18:33:35.616Z,14.12
2019-05-01T18:36:32.637Z,13.90
2019-05-01T18:39:16.853Z,13.63
2019-05-01T18:41:53.992Z,13.51
2019-05-01T18:44:25.234Z,13.29
2019-05-01T18:46:56.165Z,13.05
2019-05-01T18:49:27.240Z,13.05
2019-05-01T18:51:58.261Z,12.89
2019-05-01T18:54:30.496Z,12.71
2019-05-01T18:57:01.925Z,12.57
2019-05-01T18:59:32.834Z,12.47
2019-05-01T19:02:04.251Z,12.37
2019-05-01T19:04:35.513Z,12.28
2019-05-01T19:07:06.581Z,12.18
2019-05-01T19:09:37.716Z,12.08
2019-05-01T19:12:09.701Z,12.02
2019-05-01T19:14:41.709Z,11.92
2019-05-01T19:17:12.825Z,11.86
2019-05-01T19:19:43.804Z,11.75
2019-05-01T19:22:14.809Z,11.67
2019-05-01T19:24:45.793Z,11.61
2019-05-01T19:27:18.851Z,11.56
2019-05-01T19:29:49.552Z,11.52
2019-05-01T19:32:21.762Z,11.45
2019-05-01T19:34:52.530Z,11.40
2019-05-01T19:37:23.940Z,11.39
2019-05-01T19:39:55.242Z,11.39
2019-05-01T19:42:25.962Z,11.32
2019-05-01T19:44:58.112Z,11.24
2019-05-01T19:47:29.242Z,11.15
2019-05-01T19:50:06.640Z,11.12
2019-05-01T19:52:37.917Z,11.00
2019-05-01T19:55:06.313Z,10.92
2019-05-01T19:57:37.961Z,10.85
2019-05-01T20:00:09.398Z,10.78
2019-05-01T20:02:41.987Z,10.80
2019-05-01T20:05:32.403Z,10.85
2019-05-01T20:08:24.232Z,10.84
2019-05-01T20:11:14.606Z,10.78
2019-05-01T20:14:06.291Z,10.69
2019-05-01T20:16:56.834Z,10.59
2019-05-01T20:19:46.680Z,10.52
2019-05-01T20:22:56.164Z,10.45
2019-05-01T20:25:46.436Z,10.51
2019-05-01T20:28:17.203Z,10.41
2019-05-01T20:30:49.666Z,10.52
2019-05-01T20:33:20.394Z,10.54
2019-05-01T20:35:51.498Z,10.40
2019-05-01T20:38:22.384Z,10.37
2019-05-01T20:41:15.810Z,10.37
2019-05-01T20:43:45.427Z,10.51
2019-05-01T20:46:16.306Z,10.45
2019-05-01T20:48:47.157Z,10.32
2019-05-01T20:51:20.146Z,10.36
2019-05-01T20:53:50.607Z,10.34
2019-05-01T20:56:40.636Z,10.28
2019-05-01T20:59:11.636Z,10.25
2019-05-01T21:02:07.756Z,10.18
2019-05-01T21:05:36.766Z,10.14
2019-05-01T21:08:17.124Z,10.24
2019-05-01T21:10:56.462Z,10.26
2019-05-01T21:13:27.289Z,10.12
2019-05-01T21:16:01.982Z,10.08
2019-05-01T21:18:30.566Z,10.08
2019-05-01T21:21:03.505Z,9.93
2019-05-01T21:23:34.349Z,9.91
2019-05-01T21:26:05.174Z,9.90
2019-05-01T21:28:36.184Z,9.99
2019-05-01T21:31:06.960Z,9.96
2019-05-01T21:33:40.888Z,9.96
2019-05-01T21:36:13.901Z,9.90
2019-05-01T21:38:45.714Z,9.85
2019-05-01T21:41:18.382Z,9.81
2019-05-01T21:43:49.217Z,9.72
2019-05-01T21:46:20.318Z,9.86
2019-05-01T21:48:51.074Z,9.99
2019-05-01T21:51:59.335Z,9.89
2019-05-01T21:54:50.147Z,10.00
2019-05-01T21:57:50.109Z,10.00
2019-05-01T22:03:57.040Z,9.84
2019-05-01T22:07:44.174Z,9.79
2019-05-01T22:10:15.171Z,9.82
2019-05-01T22:13:04.376Z,10.01
2019-05-01T22:15:41.979Z,10.22
2019-05-01T22:18:32.116Z,10.12
2019-05-01T22:21:12.471Z,9.94
2019-05-01T22:24:17.127Z,9.87
2019-05-01T22:27:06.918Z,10.01
2019-05-01T22:29:43.183Z,10.13
2019-05-01T22:32:32.340Z,10.05
2019-05-01T22:35:08.633Z,9.99
2019-05-01T22:37:39.404Z,9.95
2019-05-01T22:40:11.523Z,9.99
2019-05-01T22:42:42.435Z,9.95
2019-05-01T22:45:20.310Z,10.08
2019-05-01T22:47:52.084Z,10.12
2019-05-01T22:50:22.971Z,10.16
2019-05-01T22:52:53.731Z,10.18
2019-05-01T22:55:25.230Z,10.13
2019-05-01T22:57:58.249Z,10.10
2019-05-01T23:00:36.887Z,10.03
2019-05-01T23:03:10.056Z,9.90
2019-05-01T23:05:40.798Z,9.91
2019-05-01T23:11:53.256Z,9.72
2019-05-01T23:20:10.131Z,9.53
2019-05-01T23:22:41.202Z,9.41
2019-05-01T23:25:12.031Z,9.41
2019-05-01T23:27:42.884Z,9.39
2019-05-01T23:33:35.195Z,9.25
2019-05-01T23:41:52.182Z,9.12
2019-05-01T23:44:47.976Z,9.03
2019-05-01T23:48:03.621Z,8.97
2019-05-01T23:50:34.661Z,8.92
2019-05-01T23:53:48.199Z,8.87
2019-05-01T23:56:43.068Z,8.74
2019-05-01T23:59:26.228Z,8.70
